Time;durP1;ratioP1;P1;durP2;ratioP2;P2;SDS_P1;SDS_P2;PMS_P1;PMS_P2;Temp;Humidity;BMP_temperature;BMP_pressure;BME280_temperature;BME280_humidity;BME280_pressure;Samples;Min_cycle;Max_cycle;Signal;HPM_P1;HPM_P2
2021/03/13 00:01:44;;;;;;;5.55;2.47;;;3.00;71.40;;;;;;5107359;28;20047;-76
2021/03/13 00:04:12;;;;;;;2.20;1.90;;;2.90;70.60;;;;;;5100463;28;20044;-76
2021/03/13 00:06:40;;;;;;;1.45;1.42;;;3.00;69.70;;;;;;5102550;28;20036;-76
2021/03/13 00:09:07;;;;;;;3.33;1.95;;;3.10;68.90;;;;;;5108142;28;20047;-77
2021/03/13 00:11:35;;;;;;;2.67;1.25;;;3.30;67.50;;;;;;5110942;28;20047;-76
2021/03/13 00:14:03;;;;;;;5.45;2.00;;;3.40;67.00;;;;;;5110594;28;20048;-76
2021/03/13 00:16:30;;;;;;;2.65;1.42;;;3.30;67.40;;;;;;5111647;28;20043;-77
2021/03/13 00:18:58;;;;;;;1.63;1.52;;;3.30;67.50;;;;;;5112285;28;20051;-77
2021/03/13 00:21:25;;;;;;;6.68;2.08;;;3.30;66.60;;;;;;5111644;28;20835;-76
2021/03/13 00:23:55;;;;;;;1.95;1.83;;;3.40;66.50;;;;;;5111472;28;20044;-76
2021/03/13 00:26:23;;;;;;;1.48;1.38;;;3.40;67.10;;;;;;5111962;28;20769;-77
2021/03/13 00:28:51;;;;;;;2.00;1.90;;;3.40;66.60;;;;;;5112172;28;20055;-77
2021/03/13 00:31:18;;;;;;;1.45;1.35;;;3.40;66.10;;;;;;5111375;28;20508;-76
2021/03/13 00:33:52;;;;;;;1.95;1.10;;;3.70;64.30;;;;;;5108768;28;20051;-76
2021/03/13 00:36:20;;;;;;;1.13;1.02;;;4.30;62.90;;;;;;5101011;28;20048;-77
2021/03/13 00:38:48;;;;;;;4.07;1.75;;;4.30;61.80;;;;;;5104721;28;20032;-77
2021/03/13 00:41:15;;;;;;;1.23;1.20;;;4.40;60.80;;;;;;5105691;28;20044;-76
2021/03/13 00:43:43;;;;;;;2.25;1.33;;;4.40;61.10;;;;;;5103019;28;20044;-77
2021/03/13 00:46:13;;;;;;;3.50;1.13;;;4.30;60.70;;;;;;5104209;28;20036;-76
2021/03/13 00:48:41;;;;;;;1.30;1.20;;;4.80;59.70;;;;;;5103597;28;20420;-77
2021/03/13 00:51:10;;;;;;;3.67;1.23;;;4.40;61.50;;;;;;5105557;28;20059;-76
2021/03/13 00:53:37;;;;;;;1.33;1.23;;;4.00;62.90;;;;;;5111529;28;20059;-77
2021/03/13 00:56:05;;;;;;;1.52;1.42;;;3.70;63.20;;;;;;5106118;28;20052;-76
2021/03/13 00:58:33;;;;;;;2.20;1.95;;;3.60;64.70;;;;;;5100749;28;20424;-77
2021/03/13 01:01:05;;;;;;;1.23;0.97;;;3.70;65.40;;;;;;5106417;28;20044;-76
2021/03/13 01:03:38;;;;;;;1.17;1.17;;;3.40;65.00;;;;;;5111401;28;20054;-76
2021/03/13 01:06:08;;;;;;;1.83;1.60;;;3.50;65.80;;;;;;5109672;28;20394;-76
2021/03/13 01:08:39;;;;;;;1.30;1.30;;;3.80;64.60;;;;;;5098076;28;20044;-76
2021/03/13 01:11:15;;;;;;;3.05;1.00;;;3.80;63.40;;;;;;5092533;28;20048;-77
2021/03/13 01:13:48;;;;;;;4.72;2.03;;;3.90;63.00;;;;;;5092195;28;20051;-76
2021/03/13 01:16:17;;;;;;;1.10;1.00;;;4.10;62.30;;;;;;5111776;28;20606;-76
2021/03/13 01:18:46;;;;;;;0.95;0.95;;;4.10;61.60;;;;;;5110103;28;20043;-76
2021/03/13 01:21:21;;;;;;;2.33;1.27;;;4.10;61.80;;;;;;5109475;28;20404;-77
2021/03/13 01:23:51;;;;;;;6.45;1.30;;;4.30;60.70;;;;;;5111331;28;20098;-76
2021/03/13 01:26:22;;;;;;;3.42;1.35;;;4.30;60.40;;;;;;5111528;28;20803;-76
2021/03/13 01:28:51;;;;;;;5.82;2.97;;;4.20;59.90;;;;;;5093373;28;20052;-76
2021/03/13 01:31:42;;;;;;;2.72;0.90;;;4.40;60.60;;;;;;5104956;28;20047;-77
2021/03/13 01:34:12;;;;;;;1.83;1.42;;;4.20;59.90;;;;;;5110224;28;20058;-78
2021/03/13 01:36:51;;;;;;;1.45;1.33;;;4.20;60.30;;;;;;5093055;28;20055;-77
2021/03/13 01:39:18;;;;;;;2.38;1.10;;;4.40;60.30;;;;;;5107152;28;20043;-76
2021/03/13 01:41:46;;;;;;;3.67;1.30;;;4.20;60.70;;;;;;5093471;28;20055;-76
2021/03/13 01:44:14;;;;;;;1.23;1.10;;;4.00;60.70;;;;;;5091875;28;20031;-76
2021/03/13 01:46:43;;;;;;;1.30;1.30;;;4.00;61.00;;;;;;5075835;28;20492;-76
2021/03/13 01:49:28;;;;;;;0.85;0.85;;;4.10;60.60;;;;;;5093421;28;20385;-77
2021/03/13 01:51:57;;;;;;;1.25;1.15;;;4.20;60.00;;;;;;5084699;28;20031;-76
2021/03/13 01:54:26;;;;;;;1.40;1.30;;;4.10;60.30;;;;;;5111127;28;20058;-76
2021/03/13 01:56:53;;;;;;;1.65;0.93;;;3.90;61.20;;;;;;5111680;28;20051;-77
2021/03/13 01:59:25;;;;;;;1.77;1.30;;;3.90;61.20;;;;;;5092198;28;20046;-76
2021/03/13 02:01:55;;;;;;;1.08;1.08;;;3.90;61.70;;;;;;5109514;28;20070;-77
2021/03/13 02:04:27;;;;;;;0.80;0.80;;;4.30;60.00;;;;;;5109494;28;20059;-76
2021/03/13 02:07:00;;;;;;;;;;;4.30;59.50;;;;;;5109308;28;20047;-76
2021/03/13 02:09:38;;;;;;;1.50;1.42;;;4.30;58.80;;;;;;5110441;28;19920;-77
2021/03/13 02:12:25;;;;;;;5.53;1.45;;;4.20;59.60;;;;;;5105981;28;20055;-77
2021/03/13 02:15:11;;;;;;;1.67;1.25;;;4.10;60.10;;;;;;5095434;28;20050;-76
2021/03/13 02:17:51;;;;;;;1.33;1.10;;;4.50;57.60;;;;;;5109497;28;20051;-76
2021/03/13 02:20:56;;;;;;;2.08;1.05;;;4.50;58.20;;;;;;5092442;28;20047;-77
2021/03/13 02:23:25;;;;;;;1.35;1.35;;;4.20;59.80;;;;;;5108128;28;20055;-76
2021/03/13 02:26:26;;;;;;;0.80;0.80;;;4.10;60.40;;;;;;5109943;28;20046;-76
2021/03/13 02:29:26;;;;;;;1.63;1.27;;;4.00;60.60;;;;;;5092998;28;20071;-76
2021/03/13 02:32:04;;;;;;;1.25;1.25;;;4.20;60.00;;;;;;5108756;28;20063;-77
2021/03/13 02:34:37;;;;;;;3.00;1.15;;;4.20;60.50;;;;;;5094672;28;20051;-77
2021/03/13 02:37:19;;;;;;;7.40;0.90;;;4.40;59.60;;;;;;5092188;28;20055;-76
2021/03/13 02:39:51;;;;;;;4.07;1.20;;;4.40;59.10;;;;;;5092284;28;20499;-76
2021/03/13 02:42:21;;;;;;;3.30;1.03;;;4.50;59.40;;;;;;5092004;28;20052;-76
2021/03/13 02:44:50;;;;;;;6.95;1.55;;;4.50;59.00;;;;;;5092707;28;20075;-76
2021/03/13 02:47:26;;;;;;;0.90;0.90;;;5.10;56.20;;;;;;5091616;28;20054;-77
2021/03/13 02:50:02;;;;;;;2.17;1.35;;;5.30;56.70;;;;;;5085471;28;20055;-77
2021/03/13 02:52:39;;;;;;;1.10;1.10;;;5.40;58.40;;;;;;5097527;28;20071;-76
2021/03/13 02:55:13;;;;;;;1.13;0.95;;;5.50;57.00;;;;;;5092369;28;20051;-76
2021/03/13 02:57:46;;;;;;;0.90;0.90;;;5.50;57.50;;;;;;5092183;28;20043;-76
2021/03/13 03:00:17;;;;;;;2.85;1.00;;;5.60;57.70;;;;;;5108890;28;20054;-76
2021/03/13 03:02:52;;;;;;;0.80;0.80;;;5.60;57.20;;;;;;5074706;28;20839;-76
2021/03/13 03:05:24;;;;;;;1.15;0.90;;;5.60;57.10;;;;;;5109570;28;20048;-76
2021/03/13 03:07:56;;;;;;;;;;;5.50;58.00;;;;;;5108462;28;20069;-77
2021/03/13 03:10:28;;;;;;;2.28;1.23;;;5.60;57.50;;;;;;5092392;28;20417;-77
2021/03/13 03:13:00;;;;;;;3.95;2.00;;;5.70;57.50;;;;;;5094862;28;20055;-77
2021/03/13 03:15:30;;;;;;;10.98;1.38;;;5.80;58.30;;;;;;5113927;28;20058;-77
2021/03/13 03:18:11;;;;;;;1.35;0.90;;;5.60;59.10;;;;;;5102373;28;20051;-76
2021/03/13 03:20:46;;;;;;;1.63;1.15;;;5.80;58.80;;;;;;5092662;28;20765;-76
2021/03/13 03:23:13;;;;;;;0.95;0.95;;;5.70;59.50;;;;;;5100924;28;20427;-80
2021/03/13 03:25:41;;;;;;;0.70;0.70;;;5.30;60.60;;;;;;5093103;28;20408;-80
2021/03/13 03:28:13;;;;;;;3.38;1.58;;;5.40;61.20;;;;;;5095774;28;20483;-81
2021/03/13 03:30:50;;;;;;;2.47;1.00;;;5.50;60.20;;;;;;5096279;28;20074;-81
2021/03/13 03:33:21;;;;;;;1.08;1.08;;;5.30;61.00;;;;;;5096741;28;20047;-81
2021/03/13 03:35:54;;;;;;;1.27;1.25;;;5.30;61.30;;;;;;5096170;28;20404;-80
2021/03/13 03:38:24;;;;;;;1.08;1.00;;;5.40;61.90;;;;;;5112705;28;20051;-80
2021/03/13 03:40:52;;;;;;;1.02;0.95;;;5.40;62.70;;;;;;5114157;28;20051;-80
2021/03/13 03:43:43;;;;;;;0.95;0.95;;;5.60;61.80;;;;;;5112896;28;20038;-81
2021/03/13 03:46:15;;;;;;;1.10;1.00;;;5.80;60.30;;;;;;5096748;28;20048;-88
2021/03/13 03:48:45;;;;;;;2.67;1.77;;;5.70;60.50;;;;;;5080935;28;20480;-86
2021/03/13 03:51:28;;;;;;;2.35;0.77;;;5.90;60.60;;;;;;5112887;28;20411;-87
2021/03/13 03:54:09;;;;;;;0.85;0.85;;;5.80;60.50;;;;;;5114099;28;20054;-86
2021/03/13 03:56:40;;;;;;;0.82;0.82;;;5.80;61.70;;;;;;5115820;28;20051;-88
2021/03/13 03:59:14;;;;;;;1.58;1.00;;;5.60;62.90;;;;;;5113742;28;20036;-87
2021/03/13 04:01:53;;;;;;;3.17;1.35;;;5.60;62.50;;;;;;5115534;28;20051;-87
2021/03/13 04:04:23;;;;;;;2.67;1.20;;;5.50;62.50;;;;;;5095478;28;20040;-87
2021/03/13 04:06:52;;;;;;;0.93;0.93;;;5.60;62.70;;;;;;5114981;28;20403;-87
2021/03/13 04:09:25;;;;;;;1.20;1.10;;;5.60;62.70;;;;;;5115669;28;20055;-88
2021/03/13 04:11:54;;;;;;;3.03;1.10;;;5.50;63.10;;;;;;5113303;28;20054;-81
2021/03/13 04:14:23;;;;;;;0.88;0.85;;;5.60;62.40;;;;;;5113672;28;20039;-81
2021/03/13 04:16:51;;;;;;;1.55;1.05;;;5.60;63.30;;;;;;5114520;28;20048;-83
2021/03/13 04:19:19;;;;;;;2.25;1.15;;;5.60;62.60;;;;;;5114045;28;20048;-81
2021/03/13 04:21:48;;;;;;;1.95;1.25;;;5.70;62.00;;;;;;5112561;28;20377;-80
2021/03/13 04:24:16;;;;;;;3.88;1.10;;;5.50;64.10;;;;;;5112925;28;20055;-81
2021/03/13 04:26:43;;;;;;;2.05;1.30;;;5.50;63.70;;;;;;5113414;28;20043;-81
2021/03/13 04:29:11;;;;;;;1.20;1.10;;;5.70;63.20;;;;;;5114309;28;20054;-82
2021/03/13 04:31:40;;;;;;;0.88;0.88;;;5.80;62.10;;;;;;5113382;28;20043;-88
2021/03/13 04:34:10;;;;;;;1.15;1.05;;;5.90;61.40;;;;;;5114488;28;20051;-88
2021/03/13 04:36:38;;;;;;;1.17;1.08;;;6.10;60.60;;;;;;5096677;28;20059;-83
2021/03/13 04:39:07;;;;;;;1.48;1.20;;;5.80;61.00;;;;;;5114558;28;20047;-89
2021/03/13 04:41:36;;;;;;;1.88;0.85;;;5.90;61.30;;;;;;5113555;28;20051;-82
2021/03/13 04:44:39;;;;;;;0.95;0.90;;;5.90;61.40;;;;;;5111264;28;20044;-86
2021/03/13 04:47:08;;;;;;;2.42;1.13;;;6.00;61.70;;;;;;5114153;28;20044;-86
2021/03/13 04:49:36;;;;;;;1.15;0.90;;;5.80;62.80;;;;;;5114911;28;20055;-87
2021/03/13 04:52:04;;;;;;;1.13;1.13;;;5.90;62.00;;;;;;5114150;28;20040;-87
2021/03/13 04:54:33;;;;;;;1.50;1.20;;;5.80;62.00;;;;;;5113001;28;20044;-86
2021/03/13 04:57:01;;;;;;;2.83;1.20;;;5.80;62.50;;;;;;5114667;28;20051;-83
2021/03/13 04:59:29;;;;;;;0.80;0.80;;;5.90;61.20;;;;;;5096355;28;20047;-87
2021/03/13 05:01:59;;;;;;;3.22;0.90;;;5.80;62.70;;;;;;5113557;28;20040;-86
2021/03/13 05:04:26;;;;;;;2.65;1.42;;;5.90;61.60;;;;;;5079507;28;20265;-87
2021/03/13 05:06:53;;;;;;;1.55;1.02;;;5.90;62.80;;;;;;5095477;28;20047;-88
2021/03/13 05:09:21;;;;;;;2.25;1.08;;;5.80;62.70;;;;;;5079274;28;20040;-87
2021/03/13 05:11:49;;;;;;;0.85;0.85;;;5.90;62.00;;;;;;5113941;28;20730;-87
2021/03/13 05:14:16;;;;;;;1.55;0.80;;;5.90;62.00;;;;;;5096010;28;20488;-88
2021/03/13 05:16:43;;;;;;;2.35;1.48;;;5.70;63.50;;;;;;5113203;28;20054;-88
2021/03/13 05:19:11;;;;;;;1.10;1.10;;;5.80;62.50;;;;;;5096096;28;20044;-86
2021/03/13 05:21:39;;;;;;;1.33;1.33;;;5.80;62.20;;;;;;5079304;28;20050;-85
2021/03/13 05:24:07;;;;;;;2.65;1.25;;;5.80;62.50;;;;;;5078839;28;20047;-83
2021/03/13 05:26:34;;;;;;;1.15;0.82;;;5.80;62.00;;;;;;5097649;28;20038;-87
2021/03/13 05:29:01;;;;;;;1.48;1.38;;;6.00;61.30;;;;;;5113391;28;20094;-87
2021/03/13 05:31:29;;;;;;;7.53;1.48;;;6.20;60.20;;;;;;5094579;28;20047;-86
2021/03/13 05:34:01;;;;;;;2.50;1.10;;;6.10;61.60;;;;;;5113252;28;20059;-88
2021/03/13 05:36:29;;;;;;;0.80;0.80;;;6.10;61.40;;;;;;5093929;28;20058;-88
2021/03/13 05:38:57;;;;;;;0.80;0.80;;;6.10;60.90;;;;;;5094613;28;20761;-87
2021/03/13 05:41:25;;;;;;;0.85;0.85;;;6.10;61.40;;;;;;5095777;28;20377;-86
2021/03/13 05:43:53;;;;;;;0.98;0.90;;;6.20;61.80;;;;;;5078408;28;20484;-87
2021/03/13 05:46:22;;;;;;;1.63;0.68;;;6.10;61.30;;;;;;5078184;28;20048;-86
2021/03/13 05:48:54;;;;;;;1.38;0.70;;;6.00;62.40;;;;;;5078691;28;20055;-87
2021/03/13 05:51:22;;;;;;;0.70;0.70;;;5.90;63.10;;;;;;5090953;28;20050;-88
2021/03/13 05:53:51;;;;;;;1.67;1.05;;;5.80;61.70;;;;;;5074595;28;20054;-86
2021/03/13 05:56:19;;;;;;;1.50;1.40;;;5.60;64.70;;;;;;5075727;28;20050;-87
2021/03/13 05:58:47;;;;;;;0.70;0.70;;;5.40;65.90;;;;;;5080262;28;20039;-75
2021/03/13 06:01:14;;;;;;;1.02;1.02;;;5.30;65.00;;;;;;5099453;28;20056;-75
2021/03/13 06:03:45;;;;;;;4.03;0.90;;;5.20;66.80;;;;;;5092006;28;20059;-77
2021/03/13 06:06:15;;;;;;;1.50;0.90;;;5.30;65.40;;;;;;5092435;28;20499;-77
2021/03/13 06:08:44;;;;;;;0.75;0.75;;;5.50;63.90;;;;;;5108532;28;20063;-77
2021/03/13 06:11:11;;;;;;;1.02;0.90;;;5.70;62.30;;;;;;5092329;28;20039;-75
2021/03/13 06:13:38;;;;;;;1.02;0.93;;;5.70;62.50;;;;;;5110654;28;20052;-75
2021/03/13 06:16:08;;;;;;;3.20;0.90;;;5.70;63.30;;;;;;5110231;28;20039;-75
2021/03/13 06:19:05;;;;;;;3.50;1.10;;;5.70;62.70;;;;;;5108873;28;20059;-75
2021/03/13 06:21:40;;;;;;;2.88;1.10;;;5.90;61.90;;;;;;5075082;28;20059;-75
2021/03/13 06:24:07;;;;;;;1.33;1.05;;;5.90;62.90;;;;;;5092249;28;20054;-75
2021/03/13 06:26:54;;;;;;;0.95;0.95;;;5.70;62.70;;;;;;5111777;28;20043;-77
2021/03/13 06:29:23;;;;;;;1.33;1.13;;;5.50;64.70;;;;;;5110318;28;20399;-78
2021/03/13 06:32:10;;;;;;;1.25;1.17;;;5.30;65.60;;;;;;5077284;28;20040;-78
2021/03/13 06:34:50;;;;;;;1.00;0.80;;;5.20;66.50;;;;;;5105962;28;20036;-77
2021/03/13 06:37:25;;;;;;;1.50;1.40;;;5.10;66.50;;;;;;5109833;28;20056;-75
2021/03/13 06:39:54;;;;;;;1.55;0.95;;;5.10;64.90;;;;;;5091340;28;20040;-75
2021/03/13 06:42:30;;;;;;;1.40;1.20;;;5.10;67.40;;;;;;5091172;28;20048;-75
2021/03/13 06:44:58;;;;;;;1.27;0.93;;;5.00;66.40;;;;;;5110317;28;20051;-75
2021/03/13 06:47:33;;;;;;;2.63;1.52;;;5.00;65.80;;;;;;5112281;28;20044;-75
2021/03/13 06:50:16;;;;;;;1.40;0.93;;;5.30;66.30;;;;;;5112920;28;20047;-75
2021/03/13 06:52:47;;;;;;;2.15;1.60;;;5.50;63.90;;;;;;5108330;28;20054;-75
2021/03/13 06:55:16;;;;;;;1.20;1.10;;;5.80;63.30;;;;;;5114302;28;20044;-77
2021/03/13 06:57:47;;;;;;;4.72;2.50;;;5.90;64.00;;;;;;5116172;28;20052;-77
2021/03/13 07:00:31;;;;;;;1.30;1.20;;;6.00;63.00;;;;;;5115052;28;20488;-77
2021/03/13 07:03:11;;;;;;;1.10;1.10;;;5.90;63.90;;;;;;5103330;28;20052;-75
2021/03/13 07:05:44;;;;;;;1.20;1.10;;;5.80;64.20;;;;;;5092426;28;20064;-75
2021/03/13 07:08:23;;;;;;;1.13;1.13;;;5.50;65.00;;;;;;5092452;28;20044;-75
2021/03/13 07:11:16;;;;;;;1.38;1.20;;;5.30;65.30;;;;;;5106631;28;20051;-75
2021/03/13 07:13:46;;;;;;;1.73;1.42;;;5.20;66.10;;;;;;5112180;28;20476;-75
2021/03/13 07:16:30;;;;;;;1.52;1.20;;;5.20;66.40;;;;;;5112153;28;20511;-75
2021/03/13 07:19:04;;;;;;;1.30;1.10;;;5.10;65.50;;;;;;5090019;28;20048;-75
2021/03/13 07:21:35;;;;;;;1.58;1.48;;;5.20;65.60;;;;;;5091751;28;20496;-75
2021/03/13 07:24:04;;;;;;;;;;;5.40;65.80;;;;;;5108913;28;20047;-75
2021/03/13 07:26:39;;;;;;;1.13;1.10;;;5.60;63.00;;;;;;5110682;28;19923;-76
2021/03/13 07:29:10;;;;;;;1.20;1.20;;;6.00;61.80;;;;;;5097830;28;20507;-75
2021/03/13 07:31:45;;;;;;;3.78;1.50;;;6.20;59.20;;;;;;5101132;28;20058;-75
2021/03/13 07:34:19;;;;;;;4.32;1.13;;;6.30;58.70;;;;;;5094005;28;20039;-75
2021/03/13 07:36:56;;;;;;;1.05;1.05;;;6.80;57.20;;;;;;5100879;28;20048;-75
2021/03/13 07:39:28;;;;;;;1.95;1.52;;;7.10;55.90;;;;;;5107214;28;20055;-75
2021/03/13 07:42:01;;;;;;;;;;;7.00;59.90;;;;;;5106575;28;20048;-75
2021/03/13 07:44:29;;;;;;;4.28;1.55;;;7.10;59.50;;;;;;5102509;28;19924;-75
2021/03/13 07:47:00;;;;;;;2.00;1.40;;;7.20;60.70;;;;;;5100929;28;20059;-75
2021/03/13 07:49:42;;;;;;;3.95;2.67;;;7.30;59.20;;;;;;5108394;28;20404;-75
2021/03/13 07:52:13;;;;;;;4.25;2.17;;;7.10;61.70;;;;;;5104824;28;20035;-75
2021/03/13 07:54:47;;;;;;;2.90;1.15;;;7.00;61.10;;;;;;5104870;28;20065;-75
2021/03/13 07:57:16;;;;;;;4.18;2.38;;;7.40;60.50;;;;;;5102859;28;20056;-75
2021/03/13 07:59:51;;;;;;;3.80;1.42;;;7.40;59.90;;;;;;5102488;28;20047;-75
2021/03/13 08:02:32;;;;;;;4.03;1.58;;;7.50;60.10;;;;;;5093221;28;20054;-76
2021/03/13 08:05:15;;;;;;;2.67;1.30;;;7.70;58.00;;;;;;5112529;28;20064;-75
2021/03/13 08:07:59;;;;;;;1.40;1.25;;;8.00;55.70;;;;;;5111100;28;20058;-75
2021/03/13 08:11:06;;;;;;;1.65;1.55;;;7.80;59.20;;;;;;5093949;28;20048;-76
2021/03/13 08:13:39;;;;;;;1.58;1.40;;;7.90;58.90;;;;;;5029409;28;20053;-76
2021/03/13 08:16:37;;;;;;;1.52;1.15;;;7.80;58.00;;;;;;5083176;28;20091;-75
2021/03/13 08:19:26;;;;;;;0.82;0.82;;;7.70;59.40;;;;;;5099156;28;20048;-76
2021/03/13 08:22:10;;;;;;;3.08;1.77;;;7.70;58.40;;;;;;5078771;28;20408;-76
2021/03/13 08:24:43;;;;;;;1.58;1.48;;;7.70;57.80;;;;;;5112891;28;20070;-76
2021/03/13 08:27:11;;;;;;;2.25;1.58;;;7.60;58.10;;;;;;5076792;28;20048;-76
2021/03/13 08:29:56;;;;;;;1.60;1.50;;;7.50;58.60;;;;;;5111786;28;20067;-75
2021/03/13 08:32:58;;;;;;;1.10;1.10;;;7.30;56.40;;;;;;5093210;28;20039;-76
2021/03/13 08:35:42;;;;;;;2.97;1.20;;;7.10;58.30;;;;;;5060304;28;20046;-75
2021/03/13 08:38:13;;;;;;;3.60;1.40;;;7.10;58.90;;;;;;5101837;28;20051;-76
2021/03/13 08:40:51;;;;;;;2.58;1.95;;;7.30;59.20;;;;;;5092732;28;20066;-76
2021/03/13 08:43:40;;;;;;;1.23;1.10;;;7.40;57.90;;;;;;5111272;28;20059;-75
2021/03/13 08:46:47;;;;;;;3.38;1.48;;;7.50;57.90;;;;;;5094454;28;20047;-75
2021/03/13 08:49:24;;;;;;;1.20;1.17;;;7.50;57.40;;;;;;5066672;28;20080;-75
2021/03/13 08:52:03;;;;;;;1.35;1.30;;;7.40;57.00;;;;;;5064863;28;20036;-75
2021/03/13 08:54:45;;;;;;;1.38;1.20;;;7.30;60.40;;;;;;5071207;28;20048;-75
2021/03/13 08:57:25;;;;;;;1.08;0.98;;;7.20;59.00;;;;;;5070054;28;20045;-75
2021/03/13 08:59:55;;;;;;;1.15;1.05;;;7.30;58.90;;;;;;5070567;28;20505;-76
2021/03/13 09:02:24;;;;;;;1.67;1.10;;;7.40;57.00;;;;;;5068361;28;20052;-75
2021/03/13 09:05:01;;;;;;;1.27;1.17;;;7.40;56.40;;;;;;5071657;28;20052;-75
2021/03/13 09:07:30;;;;;;;1.02;1.02;;;7.40;58.60;;;;;;5068240;28;20040;-75
2021/03/13 09:09:57;;;;;;;3.35;1.30;;;7.50;56.50;;;;;;5070149;28;20063;-75
2021/03/13 09:12:28;;;;;;;2.00;1.88;;;7.70;56.80;;;;;;5070536;28;20056;-75
2021/03/13 09:14:58;;;;;;;7.03;1.65;;;7.70;58.90;;;;;;5071341;28;20063;-75
2021/03/13 09:17:28;;;;;;;1.80;1.40;;;7.70;58.60;;;;;;5070740;28;20064;-75
2021/03/13 09:20:05;;;;;;;1.40;1.30;;;7.60;59.90;;;;;;5070659;28;20040;-76
2021/03/13 09:22:38;;;;;;;1.10;1.00;;;7.70;57.90;;;;;;5069887;28;20036;-75
2021/03/13 09:25:20;;;;;;;1.95;1.42;;;7.80;56.50;;;;;;5086398;28;20048;-75
2021/03/13 09:27:51;;;;;;;1.45;1.35;;;7.80;56.70;;;;;;5070526;28;20041;-76
2021/03/13 09:30:20;;;;;;;1.42;1.33;;;7.80;56.50;;;;;;5070254;28;20501;-75
2021/03/13 09:32:49;;;;;;;1.95;1.30;;;7.80;54.60;;;;;;5070019;28;20478;-76
2021/03/13 09:35:19;;;;;;;0.98;0.98;;;7.90;59.00;;;;;;5070186;28;20056;-75
2021/03/13 09:37:47;;;;;;;1.05;1.05;;;8.00;54.50;;;;;;5069826;28;20052;-74
2021/03/13 09:40:26;;;;;;;3.80;1.23;;;8.00;57.70;;;;;;5069043;28;20075;-76
2021/03/13 09:42:54;;;;;;;3.10;1.58;;;8.10;55.50;;;;;;5066006;28;20049;-76
2021/03/13 09:45:23;;;;;;;1.10;1.00;;;8.10;59.50;;;;;;5064609;28;20071;-75
2021/03/13 09:47:56;;;;;;;1.73;1.63;;;8.20;54.40;;;;;;5069676;28;20067;-75
2021/03/13 09:50:33;;;;;;;2.28;2.05;;;8.20;57.20;;;;;;5071860;28;20044;-76
2021/03/13 09:53:06;;;;;;;2.47;1.17;;;8.20;54.80;;;;;;5107831;28;20772;-76
2021/03/13 09:55:36;;;;;;;2.47;1.10;;;8.30;56.40;;;;;;5111186;28;20043;-77
2021/03/13 09:58:04;;;;;;;1.92;1.08;;;8.40;53.30;;;;;;5110202;28;20574;-76
2021/03/13 10:00:38;;;;;;;4.43;1.35;;;8.60;53.90;;;;;;5110459;28;20047;-75
2021/03/13 10:03:16;;;;;;;1.92;1.33;;;8.60;53.70;;;;;;5110143;28;20040;-75
2021/03/13 10:05:58;;;;;;;1.90;1.48;;;8.60;54.50;;;;;;5110658;28;20051;-76
2021/03/13 10:08:38;;;;;;;1.40;1.30;;;8.80;53.90;;;;;;5059052;28;20727;-76
2021/03/13 10:11:05;;;;;;;5.07;1.90;;;8.90;56.90;;;;;;5109774;28;20031;-76
2021/03/13 10:13:33;;;;;;;0.95;0.95;;;9.10;56.20;;;;;;5110720;28;20070;-75
2021/03/13 10:16:04;;;;;;;4.10;1.50;;;9.30;53.30;;;;;;5109705;28;20046;-76
2021/03/13 10:18:37;;;;;;;1.60;1.50;;;9.30;53.40;;;;;;5109180;28;20047;-75
2021/03/13 10:21:06;;;;;;;1.52;1.30;;;9.40;54.10;;;;;;5112740;28;20077;-75
2021/03/13 10:23:38;;;;;;;3.88;2.13;;;9.30;56.30;;;;;;5113556;28;20113;-75
2021/03/13 10:26:17;;;;;;;1.20;1.10;;;9.50;56.30;;;;;;5114027;28;20052;-75
2021/03/13 10:28:46;;;;;;;2.70;1.00;;;9.60;55.40;;;;;;5114377;28;20055;-76
2021/03/13 10:31:22;;;;;;;1.33;1.23;;;9.60;51.70;;;;;;5113364;28;20062;-75
2021/03/13 10:33:51;;;;;;;2.95;1.35;;;9.70;50.60;;;;;;5113833;28;20483;-75
2021/03/13 10:36:21;;;;;;;1.13;0.88;;;9.70;52.40;;;;;;5095702;28;20419;-75
2021/03/13 10:38:51;;;;;;;1.38;0.90;;;9.80;55.90;;;;;;5113947;28;20044;-76
2021/03/13 10:41:22;;;;;;;1.20;1.10;;;10.10;52.50;;;;;;5114438;28;20059;-75
2021/03/13 10:43:53;;;;;;;;;;;10.20;54.60;;;;;;5114020;28;20040;-75
2021/03/13 10:46:22;;;;;;;1.13;1.02;;;10.20;50.60;;;;;;5113515;28;20414;-76
2021/03/13 10:48:56;;;;;;;0.65;0.65;;;10.20;49.40;;;;;;5096093;28;20059;-75
2021/03/13 10:51:43;;;;;;;2.50;1.45;;;10.40;48.90;;;;;;5111807;28;20051;-75
2021/03/13 10:54:28;;;;;;;0.73;0.73;;;10.40;48.70;;;;;;5114088;28;20055;-79
2021/03/13 10:56:57;;;;;;;1.35;0.80;;;10.30;46.40;;;;;;5115188;28;20055;-78
2021/03/13 10:59:32;;;;;;;2.35;1.10;;;10.30;44.90;;;;;;5114992;28;20399;-79
2021/03/13 11:02:00;;;;;;;1.00;1.00;;;10.50;47.50;;;;;;5114346;28;20468;-79
2021/03/13 11:04:27;;;;;;;0.88;0.88;;;10.50;47.20;;;;;;5115326;28;20051;-78
2021/03/13 11:06:57;;;;;;;0.80;0.80;;;10.30;45.20;;;;;;5106564;28;20040;-79
2021/03/13 11:09:24;;;;;;;2.60;0.80;;;10.40;45.40;;;;;;5094567;28;20048;-77
2021/03/13 11:11:52;;;;;;;0.70;0.70;;;10.30;47.80;;;;;;5109165;28;20051;-81
2021/03/13 11:14:58;;;;;;;1.02;0.70;;;10.40;46.50;;;;;;5114643;28;20044;-80
2021/03/13 11:17:28;;;;;;;0.80;0.80;;;10.50;46.00;;;;;;5114911;28;20055;-79
2021/03/13 11:19:55;;;;;;;0.70;0.70;;;10.60;49.40;;;;;;5114339;28;20040;-80
2021/03/13 11:22:22;;;;;;;0.82;0.82;;;10.70;45.40;;;;;;5103309;28;20044;-78
2021/03/13 11:24:50;;;;;;;1.20;0.95;;;10.70;45.70;;;;;;5126607;27;20675;-78
2021/03/13 11:27:18;;;;;;;1.38;0.82;;;10.70;46.50;;;;;;5113691;27;20489;-77
2021/03/13 11:29:45;;;;;;;1.08;1.08;;;10.70;48.60;;;;;;5114272;28;20060;-77
2021/03/13 11:32:14;;;;;;;1.38;0.90;;;10.90;46.40;;;;;;5110750;28;20399;-78
2021/03/13 11:34:42;;;;;;;4.90;1.13;;;10.90;45.10;;;;;;5093841;28;20047;-78
2021/03/13 11:37:09;;;;;;;0.90;0.80;;;11.10;48.80;;;;;;5093379;28;20055;-77
2021/03/13 11:39:37;;;;;;;0.80;0.80;;;11.10;45.30;;;;;;5093300;28;20051;-78
2021/03/13 11:42:05;;;;;;;0.82;0.82;;;11.00;48.20;;;;;;5085577;28;20362;-78
2021/03/13 11:44:32;;;;;;;1.58;1.02;;;10.90;42.40;;;;;;5095143;28;20044;-79
2021/03/13 11:47:02;;;;;;;0.90;0.90;;;10.90;45.00;;;;;;5093619;28;20397;-80
2021/03/13 11:49:30;;;;;;;1.00;1.00;;;11.00;43.20;;;;;;5077152;28;20048;-79
2021/03/13 11:51:58;;;;;;;1.75;1.13;;;11.10;44.70;;;;;;5075325;28;20070;-78
2021/03/13 11:54:27;;;;;;;1.50;1.40;;;11.10;43.90;;;;;;5094024;28;20044;-79
2021/03/13 11:56:54;;;;;;;5.32;1.05;;;11.50;42.70;;;;;;5076888;28;20052;-82
2021/03/13 11:59:22;;;;;;;2.08;0.80;;;11.50;43.00;;;;;;5076101;28;20055;-80
2021/03/13 12:01:50;;;;;;;2.80;0.80;;;11.60;41.60;;;;;;5075393;28;20052;-79
2021/03/13 12:04:17;;;;;;;0.98;0.95;;;11.90;42.40;;;;;;5113648;28;20048;-80
2021/03/13 12:06:45;;;;;;;0.75;0.75;;;11.90;41.80;;;;;;5114842;28;20055;-82
2021/03/13 12:09:12;;;;;;;0.60;0.60;;;12.00;41.20;;;;;;5082758;28;20051;-82
2021/03/13 12:11:42;;;;;;;0.60;0.60;;;12.30;45.20;;;;;;5097098;28;20044;-82
2021/03/13 12:14:13;;;;;;;6.35;1.15;;;12.40;41.10;;;;;;5114494;28;20040;-83
2021/03/13 12:16:41;;;;;;;1.42;0.80;;;12.50;48.60;;;;;;5097478;28;20056;-82
2021/03/13 12:19:09;;;;;;;1.75;1.65;;;12.60;41.40;;;;;;5112194;28;20040;-82
2021/03/13 12:21:36;;;;;;;2.85;1.08;;;12.70;41.20;;;;;;5113509;28;20048;-80
2021/03/13 12:24:05;;;;;;;1.98;1.65;;;12.70;43.50;;;;;;5094773;28;20039;-80
2021/03/13 12:26:36;;;;;;;1.38;1.27;;;12.70;40.90;;;;;;5078796;28;20047;-80
2021/03/13 12:29:04;;;;;;;1.45;0.60;;;12.70;41.20;;;;;;5097116;28;20051;-82
2021/03/13 12:31:33;;;;;;;2.25;1.40;;;12.80;41.00;;;;;;5110362;28;20047;-85
2021/03/13 12:34:03;;;;;;;2.73;1.03;;;12.70;45.90;;;;;;5097359;28;20097;-85
2021/03/13 12:36:32;;;;;;;0.85;0.55;;;12.30;41.00;;;;;;5096661;28;20051;-84
2021/03/13 12:39:16;;;;;;;0.90;0.90;;;12.30;40.30;;;;;;5087648;28;20040;-85
2021/03/13 12:41:45;;;;;;;0.75;0.75;;;12.60;42.40;;;;;;5091001;28;20055;-84
2021/03/13 12:44:13;;;;;;;2.88;1.65;;;12.40;44.10;;;;;;5074706;28;20048;-85
2021/03/13 12:46:41;;;;;;;3.47;0.88;;;12.20;42.50;;;;;;5074712;28;20044;-85
2021/03/13 12:49:10;;;;;;;2.22;1.58;;;12.20;42.50;;;;;;5109029;28;20052;-85
2021/03/13 12:51:38;;;;;;;2.10;0.90;;;12.30;45.60;;;;;;5112447;28;20051;-84
2021/03/13 12:54:05;;;;;;;1.42;1.33;;;12.50;46.20;;;;;;5114226;28;20063;-84
2021/03/13 12:56:33;;;;;;;1.20;1.08;;;12.70;41.80;;;;;;5113746;28;20051;-85
2021/03/13 12:59:00;;;;;;;1.90;1.02;;;12.40;40.40;;;;;;5113445;28;20046;-86
2021/03/13 13:01:28;;;;;;;0.70;0.70;;;12.20;38.80;;;;;;5113602;28;20063;-85
2021/03/13 13:04:02;;;;;;;0.85;0.77;;;12.20;40.40;;;;;;5113454;28;20043;-87
2021/03/13 13:06:32;;;;;;;1.00;0.80;;;12.10;41.60;;;;;;5075166;28;20048;-87
2021/03/13 13:08:59;;;;;;;1.60;0.70;;;12.00;42.30;;;;;;5082846;28;20058;-83
2021/03/13 13:11:27;;;;;;;1.95;1.52;;;12.10;41.80;;;;;;5112564;28;20050;-83
2021/03/13 13:13:54;;;;;;;1.08;0.90;;;12.10;42.90;;;;;;5112720;28;20047;-81
2021/03/13 13:16:22;;;;;;;1.10;1.10;;;12.10;43.90;;;;;;5114054;28;20060;-81
2021/03/13 13:18:50;;;;;;;1.08;0.75;;;12.10;41.50;;;;;;5115240;28;20043;-80
2021/03/13 13:21:17;;;;;;;1.02;0.65;;;12.10;43.90;;;;;;5113929;28;20059;-82
2021/03/13 13:23:45;;;;;;;1.08;0.90;;;12.20;41.20;;;;;;5112419;28;20401;-82